VDPPVTPH

Guest
Details From VDPP - Phnom Penh Intl
To VTPH - Hua Hin
Flight Number -
Tags generated
Created
Modified
Stats Distance 302 nm / 559 km
Max Altitude 34,000 ft / 10,363 m
Waypoints 5
Social Downloads 0
Likes 0
Share

Download

Looking for another format? Having issues loading an existing format? Contact us
Advertisement - Login to hide

Notes

Basic altitude profile: - Ascent Rate: 2500ft/min - Ascent Speed: 250kts - Cruise Altitude: 35000ft - Cruise Speed: 420kts - Descent Rate: 1500ft/min - Descent Speed: 250kts Options: - Use NATs: yes - Use PACOTS: yes - Use low airways: yes - Use high airways: yes

Route

VDPP PNH A340 RYN VTPH

ID Type Via Altitude (ft/m) Position (lat/lon) Dist (leg/tot) Name
O VDPP APT - 0 / 0 11.54654 / 104.84414 - / 0 nm Phnom Penh Intl
PNH VOR - 0 / 0 11.54667 / 104.84167 0 / 0 nm PHNOM PENH VOR-DME
BISOR FIX A340 (AWY-LO) 34,000 / 10,363 12.35000 / 102.78333 130 / 130 nm
RYN VOR A340 (AWY-HI) 20,700 / 6,309 12.78008 / 101.67825 69 / 200 nm RAYONG VOR-DME
O VTPH APT - 0 / 0 12.63622 / 99.95153 101 / 301 nm Hua Hin

Altitude Profile

Advertisement - Login to hide

Weather


0- 5 10 15 20 25 30 35+ Temperature / °C

Clouds and Precipitation
Forecast for 2020-10-24 12:00 UTC. Updated 5 hours ago

Ground ~20,000 ft ~40,000 ft Winds

VDPP

Details ICAO VDPP (PNH)
Name Phnom Penh Intl
Region Cambodia
Timezone Asia/Phnom_Penh (UTC+7.0)
Stats Elevation 40 ft / 12 m (AMSL)
Location 11.546500° 104.844000°
Runways 1
Magnetic Variation 0.541° W

METAR

VDPP 241430Z VRB01KT 9999 FEW017 28/23 Q1010

Decode

TAF

TAF VDPP 241100Z 2412/2506 03005KT 9999 SCT017 SCT040

Decode

Departure Runways

ID Width Length Bearing (true/mag) Surface Threshold Overrun Markings Lighting
05 148 ft / 45 m 9,858 ft / 3,005 m 45.57° / 46.11° ASPHALT 0 ft / 0 m 666 ft / 203 m PREC-APP EDGE THRESHOLD
23 148 ft / 45 m 9,858 ft / 3,005 m 225.58° / 226.12° ASPHALT 492 ft / 150 m 653 ft / 199 m PREC-APP EDGE THRESHOLD

VTPH

Details ICAO VTPH (HHQ)
Name Hua Hin
Region Thailand
Timezone Asia/Bangkok (UTC+7.0)
Stats Elevation 62 ft / 19 m (AMSL)
Location 12.636200° 99.951500°
Runways 1
Magnetic Variation 0.492° W

METAR

Not found

TAF

TAF VTPH 241100Z 2412/2512 35005KT 9999 FEW020

Decode

Destination Runways

ID Width Length Bearing (true/mag) Surface Threshold Overrun Markings Lighting
16 115 ft / 35 m 6,935 ft / 2,114 m 159.78° / 160.27° ASPHALT 0 ft / 0 m 197 ft / 60 m APP EDGE THRESHOLD
34 115 ft / 35 m 6,935 ft / 2,114 m 339.78° / 340.27° ASPHALT 492 ft / 150 m 95 ft / 29 m APP EDGE THRESHOLD